Time;durP1;ratioP1;P1;durP2;ratioP2;P2;SDS_P1;SDS_P2;PMS_P1;PMS_P2;Temp;Humidity;BMP_temperature;BMP_pressure;BME280_temperature;BME280_humidity;BME280_pressure;Samples;Min_cycle;Max_cycle;Signal;HPM_P1;HPM_P2
2023/02/25 00:00:16;;;;;;;;;;;;;;;-144.99;86.97;52633.59;5005665;28;19967;-68
2023/02/25 00:02:43;;;;;;;;;;;;;;;-144.99;86.29;52598.94;5002509;28;19936;-70
2023/02/25 00:05:10;;;;;;;;;;;;;;;-144.99;86.29;52615.25;5005034;28;20063;-69
2023/02/25 00:07:37;;;;;;;;;;;;;;;-144.99;86.62;52607.09;5006035;28;20324;-70
2023/02/25 00:10:03;;;;;;;;;;;;;;;-144.99;87.09;52594.84;5005727;28;20309;-70
2023/02/25 00:12:31;;;;;;;;;;;;;;;-144.99;87.20;52607.09;5007986;28;20023;-70
2023/02/25 00:14:58;;;;;;;;;;;;;;;-144.99;88.23;52594.84;5001468;28;19997;-70
2023/02/25 00:17:24;;;;;;;;;;;;;;;-144.99;88.24;52586.69;5016964;28;19968;-70
2023/02/25 00:19:51;;;;;;;;;;;;;;;-144.99;88.30;52619.31;5001754;28;20001;-70
2023/02/25 00:22:17;;;;;;;;;;;;;;;-144.99;88.48;52615.25;5006815;28;20393;-69
2023/02/25 00:24:44;;;;;;;;;;;;;;;-144.99;87.93;52594.84;5013703;28;19954;-72
2023/02/25 00:27:10;;;;;;;;;;;;;;;-144.99;89.17;52631.53;5001401;28;20381;-72
2023/02/25 00:29:38;;;;;;;;;;;;;;;-144.99;89.07;52603.00;5005247;28;19944;-74
2023/02/25 00:32:05;;;;;;;;;;;;;;;-144.99;87.88;52594.84;5014256;28;20328;-71
2023/02/25 00:34:31;;;;;;;;;;;;;;;-144.99;87.16;52623.38;5003049;28;20467;-73
2023/02/25 00:36:58;;;;;;;;;;;;;;;-144.99;87.30;52607.09;5018479;28;19993;-73
2023/02/25 00:39:41;;;;;;;;;;;;;;;-144.99;87.25;52576.50;5014767;28;20396;-73
2023/02/25 00:42:07;;;;;;;;;;;;;;;-144.99;86.91;52586.69;5011385;28;19943;-73
2023/02/25 00:44:34;;;;;;;;;;;;;;;-144.99;85.89;52609.13;5003218;28;19933;-70
2023/02/25 00:47:02;;;;;;;;;;;;;;;-144.99;85.75;52627.47;5007313;28;19989;-72
2023/02/25 00:49:28;;;;;;;;;;;;;;;-144.99;85.58;52578.53;5013444;28;19998;-72
2023/02/25 00:51:55;;;;;;;;;;;;;;;-144.99;85.40;52598.94;5007270;28;20010;-69
2023/02/25 00:54:22;;;;;;;;;;;;;;;-144.99;85.05;52603.00;5005024;28;20182;-69
2023/02/25 00:56:49;;;;;;;;;;;;;;;-144.99;84.25;52619.31;5010965;28;20085;-69
2023/02/25 00:59:15;;;;;;;;;;;;;;;-144.99;83.50;52594.84;5017043;28;19978;-69
2023/02/25 01:01:42;;;;;;;;;;;;;;;-144.99;83.17;52574.47;5009888;28;20383;-69
2023/02/25 01:04:10;;;;;;;;;;;;;;;-144.99;83.31;52619.31;5000604;28;20046;-69
2023/02/25 01:06:37;;;;;;;;;;;;;;;-144.99;82.70;52607.09;4996619;28;20481;-69
2023/02/25 01:09:05;;;;;;;;;;;;;;;-144.99;82.27;52623.38;5014899;28;19951;-70
2023/02/25 01:11:33;;;;;;;;;;;;;;;-144.99;82.03;52594.84;5006534;28;20024;-77
2023/02/25 01:14:00;;;;;;;;;;;;;;;-144.99;82.18;52588.75;5007497;28;20018;-77
2023/02/25 01:16:28;;;;;;;;;;;;;;;-144.99;82.35;52623.38;5017348;28;19971;-76
2023/02/25 01:18:55;;;;;;;;;;;;;;;-144.99;82.21;52586.69;5027385;28;20033;-75
2023/02/25 01:21:26;;;;;;;;;;;;;;;-144.99;82.62;52570.38;4996733;28;19992;-75
2023/02/25 01:23:57;;;;;;;;;;;;;;;-144.99;82.80;52588.75;5009174;28;19957;-75
2023/02/25 01:26:23;;;;;;;;;;;;;;;-144.99;83.92;52656.00;4993833;28;19943;-74
2023/02/25 01:28:50;;;;;;;;;;;;;;;-144.99;83.36;52594.84;4999849;28;19956;-71
2023/02/25 01:31:17;;;;;;;;;;;;;;;-144.99;83.38;52611.16;4993248;28;19979;-70
2023/02/25 01:33:43;;;;;;;;;;;;;;;-144.99;83.38;52603.00;5001752;28;20310;-71
2023/02/25 01:36:10;;;;;;;;;;;;;;;-144.99;83.74;52617.28;5007295;28;20342;-72
2023/02/25 01:38:38;;;;;;;;;;;;;;;-144.99;83.66;52590.78;5007018;28;20004;-71
2023/02/25 01:41:05;;;;;;;;;;;;;;;-144.99;83.64;52572.44;4996261;28;20024;-74
2023/02/25 01:43:31;;;;;;;;;;;;;;;-144.99;83.45;52623.38;4992749;28;20483;-74
2023/02/25 01:45:58;;;;;;;;;;;;;;;-144.99;83.29;52603.00;5004153;28;20045;-71
2023/02/25 01:48:27;;;;;;;;;;;;;;;-144.99;83.64;52623.38;4997916;28;20030;-71
2023/02/25 01:50:55;;;;;;;;;;;;;;;-144.99;85.17;52631.53;4659284;28;9999756;-71
2023/02/25 01:53:23;;;;;;;;;;;;;;;-144.99;83.81;52584.66;5000945;28;20029;-69
2023/02/25 01:55:52;;;;;;;;;;;;;;;-144.99;82.80;52607.09;5008068;28;19968;-72
2023/02/25 01:58:20;;;;;;;;;;;;;;;-144.99;83.20;52576.50;4996251;28;20846;-72
2023/02/25 02:00:46;;;;;;;;;;;;;;;-144.99;82.88;52623.38;5002723;28;19987;-72
2023/02/25 02:03:15;;;;;;;;;;;;;;;-144.99;82.76;52609.13;5005700;28;20385;-72
2023/02/25 02:06:00;;;;;;;;;;;;;;;-144.99;82.86;52590.78;5014632;28;20008;-68
2023/02/25 02:08:26;;;;;;;;;;;;;;;-144.99;82.64;52594.84;5007391;28;19966;-67
2023/02/25 02:10:56;;;;;;;;;;;;;;;-144.99;82.52;52603.00;5010918;28;20349;-66
2023/02/25 02:13:22;;;;;;;;;;;;;;;-144.99;81.84;52592.81;5007575;28;20024;-69
2023/02/25 02:15:54;;;;;;;;;;;;;;;-144.99;82.34;52584.66;5009632;28;19969;-68
2023/02/25 02:18:21;;;;;;;;;;;;;;;-144.99;81.83;52603.00;5005062;28;20134;-67
2023/02/25 02:20:55;;;;;;;;;;;;;;;-144.99;82.02;52607.09;5015274;28;19941;-68
2023/02/25 02:23:38;;;;;;;;;;;;;;;-144.99;81.63;52623.38;5009283;28;20032;-69
2023/02/25 02:26:20;;;;;;;;;;;;;;;-144.99;80.96;52603.00;5004495;28;19961;-67
2023/02/25 02:29:04;;;;;;;;;;;;;;;-144.99;81.14;52586.69;5004586;28;19959;-68
2023/02/25 02:31:41;;;;;;;;;;;;;;;-144.99;81.87;52615.25;5013119;28;20412;-68
2023/02/25 02:34:16;;;;;;;;;;;;;;;-144.99;82.20;52603.00;5008113;28;20148;-67
2023/02/25 02:36:49;;;;;;;;;;;;;;;-144.99;82.27;52594.84;5015783;28;19935;-67
2023/02/25 02:39:20;;;;;;;;;;;;;;;-144.99;83.40;52619.31;5013294;28;20353;-67
2023/02/25 02:41:48;;;;;;;;;;;;;;;-144.99;83.42;52586.69;5015476;28;20503;-67
2023/02/25 02:44:17;;;;;;;;;;;;;;;-144.99;83.46;52603.00;5009359;28;20045;-69
2023/02/25 02:46:48;;;;;;;;;;;;;;;-144.99;83.09;52578.53;5011073;28;20071;-69
2023/02/25 02:49:18;;;;;;;;;;;;;;;-144.99;82.74;52598.94;5014997;28;20387;-69
2023/02/25 02:51:48;;;;;;;;;;;;;;;-144.99;82.51;52639.69;5012892;28;19940;-69
2023/02/25 02:54:15;;;;;;;;;;;;;;;-144.99;82.33;52598.94;5014499;28;20005;-70
2023/02/25 02:56:43;;;;;;;;;;;;;;;-144.99;82.27;52615.25;5013759;28;19979;-69
2023/02/25 02:59:13;;;;;;;;;;;;;;;-144.99;82.17;52623.38;5019687;28;19941;-69
2023/02/25 03:01:43;;;;;;;;;;;;;;;-144.99;82.46;52625.44;5015123;28;19933;-69
2023/02/25 03:04:14;;;;;;;;;;;;;;;-144.99;81.98;52639.69;5006694;28;19958;-69
2023/02/25 03:06:42;;;;;;;;;;;;;;;-144.99;82.10;52598.94;5004698;28;20348;-69
2023/02/25 03:09:10;;;;;;;;;;;;;;;-144.99;81.79;52609.13;5019700;28;19961;-69
2023/02/25 03:11:37;;;;;;;;;;;;;;;-144.99;81.76;52643.78;5015056;28;19945;-69
2023/02/25 03:14:07;;;;;;;;;;;;;;;-144.99;81.49;52611.16;5012169;28;19968;-70
2023/02/25 03:16:36;;;;;;;;;;;;;;;-144.99;81.27;52631.53;5006285;28;20005;-69
2023/02/25 03:19:06;;;;;;;;;;;;;;;-144.99;81.44;52623.38;5012158;28;20390;-69
2023/02/25 03:21:38;;;;;;;;;;;;;;;-144.99;81.07;52619.31;5009549;28;20202;-74
2023/02/25 03:24:05;;;;;;;;;;;;;;;-144.99;81.08;52609.13;5005769;28;19971;-73
2023/02/25 03:26:33;;;;;;;;;;;;;;;-144.99;81.11;52651.94;5002745;28;19983;-72
2023/02/25 03:29:00;;;;;;;;;;;;;;;-144.99;81.33;52627.47;5006139;28;19961;-73
2023/02/25 03:31:29;;;;;;;;;;;;;;;-144.99;81.48;52582.63;5009990;28;19940;-72
2023/02/25 03:33:57;;;;;;;;;;;;;;;-144.99;81.79;52635.63;5009699;28;20021;-72
2023/02/25 03:36:27;;;;;;;;;;;;;;;-144.99;82.03;52590.78;5006992;28;20040;-68
2023/02/25 03:38:57;;;;;;;;;;;;;;;-144.99;81.95;52586.69;5010306;28;19941;-76
2023/02/25 03:41:26;;;;;;;;;;;;;;;-144.99;82.21;52611.16;5010811;28;19985;-76
2023/02/25 03:43:54;;;;;;;;;;;;;;;-144.99;82.32;52619.31;5016765;28;19944;-76
2023/02/25 03:46:22;;;;;;;;;;;;;;;-144.99;82.43;52603.00;5005082;28;20001;-75
2023/02/25 03:48:50;;;;;;;;;;;;;;;-144.99;82.47;52594.84;5014185;28;20464;-72
2023/02/25 03:51:20;;;;;;;;;;;;;;;-144.99;82.35;52623.38;5008429;28;20293;-71
2023/02/25 03:53:46;;;;;;;;;;;;;;;-144.99;82.32;52615.25;5006697;28;19954;-66
2023/02/25 03:56:14;;;;;;;;;;;;;;;-144.99;82.81;52639.69;5009407;28;20479;-66
2023/02/25 03:58:41;;;;;;;;;;;;;;;-144.99;83.24;52625.44;5008891;28;19991;-67
2023/02/25 04:01:11;;;;;;;;;;;;;;;-144.99;83.26;52596.88;5015290;28;19941;-67
2023/02/25 04:03:38;;;;;;;;;;;;;;;-144.99;83.86;52596.88;5005305;28;20321;-68
2023/02/25 04:06:05;;;;;;;;;;;;;;;-144.99;84.25;52590.78;5014906;28;20412;-68
2023/02/25 04:08:31;;;;;;;;;;;;;;;-144.99;84.47;52603.00;5014307;28;20010;-66
2023/02/25 04:10:58;;;;;;;;;;;;;;;-144.99;84.56;52617.28;5010104;28;20030;-66
2023/02/25 04:13:26;;;;;;;;;;;;;;;-144.99;84.98;52611.16;5004434;28;20030;-67
2023/02/25 04:15:52;;;;;;;;;;;;;;;-144.99;84.96;52643.78;5005207;28;20388;-67
2023/02/25 04:18:18;;;;;;;;;;;;;;;-144.99;85.83;52629.50;5010635;28;19940;-67
2023/02/25 04:20:45;;;;;;;;;;;;;;;-144.99;85.50;52639.69;5013474;28;20321;-66
2023/02/25 04:23:12;;;;;;;;;;;;;;;-144.99;85.31;52627.47;5013261;28;20182;-68
2023/02/25 04:25:39;;;;;;;;;;;;;;;-144.99;85.14;52594.84;5006985;28;20034;-67
2023/02/25 04:28:06;;;;;;;;;;;;;;;-144.99;85.58;52598.94;5011738;28;19941;-67
2023/02/25 04:30:33;;;;;;;;;;;;;;;-144.99;85.19;52592.81;5005203;28;19976;-68
2023/02/25 04:33:00;;;;;;;;;;;;;;;-144.99;85.62;52643.78;5016992;28;19979;-68
2023/02/25 04:35:27;;;;;;;;;;;;;;;-144.99;85.79;52617.28;5007840;28;20593;-71
2023/02/25 04:37:53;;;;;;;;;;;;;;;-144.99;86.41;52611.16;5013818;28;20021;-71
2023/02/25 04:40:21;;;;;;;;;;;;;;;-144.99;85.94;52627.47;5013763;28;19944;-71
2023/02/25 04:42:48;;;;;;;;;;;;;;;-144.99;86.42;52582.63;5005860;28;19947;-68
2023/02/25 04:45:15;;;;;;;;;;;;;;;-144.99;86.39;52600.97;4997659;28;20950;-70
2023/02/25 04:47:43;;;;;;;;;;;;;;;-144.99;86.54;52592.81;5005988;28;20491;-71
2023/02/25 04:50:11;;;;;;;;;;;;;;;-144.99;86.60;52586.69;5001364;28;19971;-70
2023/02/25 04:52:37;;;;;;;;;;;;;;;-144.99;86.35;52598.94;5014729;28;19945;-69
2023/02/25 04:55:04;;;;;;;;;;;;;;;-144.99;86.84;52592.81;5001487;28;20005;-70
2023/02/25 04:57:31;;;;;;;;;;;;;;;-144.99;86.48;52590.78;5010821;28;19933;-68
2023/02/25 04:59:57;;;;;;;;;;;;;;;-144.99;86.86;52596.88;5010144;28;20867;-68
2023/02/25 05:02:23;;;;;;;;;;;;;;;-144.99;86.12;52627.47;5009824;28;19967;-67
2023/02/25 05:04:51;;;;;;;;;;;;;;;-144.99;86.28;52617.28;5004114;28;20516;-67
2023/02/25 05:07:18;;;;;;;;;;;;;;;-144.99;86.62;52588.75;5007399;28;20393;-68
2023/02/25 05:09:44;;;;;;;;;;;;;;;-144.99;88.24;52598.94;5010466;28;20092;-68
2023/02/25 05:12:11;;;;;;;;;;;;;;;-144.99;87.44;52600.97;5014728;28;19989;-66
2023/02/25 05:14:37;;;;;;;;;;;;;;;-144.99;87.14;52623.38;5011827;28;19995;-69
2023/02/25 05:17:04;;;;;;;;;;;;;;;-144.99;88.18;52586.69;5003247;28;20544;-67
2023/02/25 05:19:31;;;;;;;;;;;;;;;-144.99;88.57;52598.94;5013404;28;19979;-67
2023/02/25 05:21:59;;;;;;;;;;;;;;;-144.99;88.66;52643.78;5012050;28;19967;-67
2023/02/25 05:24:25;;;;;;;;;;;;;;;-144.99;88.49;52623.38;5004790;28;20377;-67
2023/02/25 05:26:52;;;;;;;;;;;;;;;-144.99;88.43;52639.69;5009573;28;19985;-67
2023/02/25 05:29:19;;;;;;;;;;;;;;;-144.99;88.71;52619.31;5001299;28;20026;-69
2023/02/25 05:31:46;;;;;;;;;;;;;;;-144.99;87.56;52594.84;5016337;28;19944;-67
2023/02/25 05:34:12;;;;;;;;;;;;;;;-144.99;86.61;52611.16;5011988;28;19930;-66
2023/02/25 05:36:40;;;;;;;;;;;;;;;-144.99;86.39;52647.84;5006997;28;19955;-67
2023/02/25 05:39:09;;;;;;;;;;;;;;;-144.99;86.24;52600.97;5010823;28;19994;-68
2023/02/25 05:41:36;;;;;;;;;;;;;;;-144.99;86.28;52574.47;5012417;28;19945;-68
2023/02/25 05:44:02;;;;;;;;;;;;;;;-144.99;85.81;52580.59;5012751;28;20375;-68
2023/02/25 05:46:29;;;;;;;;;;;;;;;-144.99;86.13;52586.69;5007631;28;20002;-68
2023/02/25 05:48:55;;;;;;;;;;;;;;;-144.99;85.60;52603.00;5016347;28;19965;-73
2023/02/25 05:51:22;;;;;;;;;;;;;;;-144.99;85.86;52588.75;5014961;28;20404;-73
2023/02/25 05:53:49;;;;;;;;;;;;;;;-144.99;85.50;52590.78;5010073;28;20053;-73
2023/02/25 05:56:18;;;;;;;;;;;;;;;-144.99;85.14;52615.25;5013124;28;20445;-74
2023/02/25 05:58:47;;;;;;;;;;;;;;;-144.99;85.31;52584.66;5009079;28;19939;-74
2023/02/25 06:01:14;;;;;;;;;;;;;;;-144.99;85.72;52615.25;5000268;28;20555;-67
2023/02/25 06:03:41;;;;;;;;;;;;;;;-144.99;85.61;52619.31;5008612;28;20462;-69
2023/02/25 06:06:09;;;;;;;;;;;;;;;-144.99;84.96;52645.81;5009929;28;20004;-72
2023/02/25 06:08:35;;;;;;;;;;;;;;;-144.99;85.82;52635.63;5008623;28;20027;-70
2023/02/25 06:11:03;;;;;;;;;;;;;;;-144.99;85.48;52605.03;5021832;28;20495;-72
2023/02/25 06:13:30;;;;;;;;;;;;;;;-144.99;86.48;52627.47;5013525;28;19939;-71
2023/02/25 06:15:57;;;;;;;;;;;;;;;-144.99;86.20;52627.47;5012326;28;19941;-75
2023/02/25 06:18:23;;;;;;;;;;;;;;;-144.99;86.30;52586.69;5014325;28;19994;-74
2023/02/25 06:20:50;;;;;;;;;;;;;;;-144.99;87.23;52607.09;5014993;28;20037;-73
2023/02/25 06:23:17;;;;;;;;;;;;;;;-144.99;87.39;52621.34;5013808;28;20346;-67
2023/02/25 06:25:43;;;;;;;;;;;;;;;-144.99;87.09;52619.31;5009573;28;19926;-72
2023/02/25 06:28:10;;;;;;;;;;;;;;;-144.99;87.11;52623.38;5013414;28;20009;-74
2023/02/25 06:30:37;;;;;;;;;;;;;;;-144.99;87.51;52643.78;5006930;28;19955;-72
2023/02/25 06:33:04;;;;;;;;;;;;;;;-144.99;89.11;52611.16;5005629;28;20023;-71
2023/02/25 06:35:30;;;;;;;;;;;;;;;-144.99;89.02;52558.16;5009590;28;20081;-70
2023/02/25 06:37:58;;;;;;;;;;;;;;;-144.99;89.45;52586.69;5010142;28;20392;-70
2023/02/25 06:40:25;;;;;;;;;;;;;;;-144.99;90.19;52586.69;5004348;28;20010;-70
2023/02/25 06:42:51;;;;;;;;;;;;;;;-144.99;90.37;52590.78;5001733;28;20597;-70
2023/02/25 06:45:18;;;;;;;;;;;;;;;-144.99;90.48;52594.84;5007455;28;19995;-70
2023/02/25 06:47:46;;;;;;;;;;;;;;;-144.99;89.92;52637.66;5009775;28;19997;-70
2023/02/25 06:50:13;;;;;;;;;;;;;;;-144.99;89.92;52639.69;5008876;28;20532;-70
2023/02/25 06:52:40;;;;;;;;;;;;;;;-144.99;90.46;52586.69;5001656;28;19936;-69
2023/02/25 06:55:07;;;;;;;;;;;;;;;-144.99;89.92;52627.47;5009693;28;20454;-73
2023/02/25 06:57:33;;;;;;;;;;;;;;;-144.99;89.12;52594.84;5009448;28;19987;-73
2023/02/25 07:00:00;;;;;;;;;;;;;;;-144.99;89.18;52639.69;5004900;28;19943;-72
2023/02/25 07:02:26;;;;;;;;;;;;;;;-144.99;89.13;52586.69;5016732;28;19997;-73
2023/02/25 07:04:54;;;;;;;;;;;;;;;-144.99;89.00;52660.09;5012571;28;19984;-71
2023/02/25 07:07:21;;;;;;;;;;;;;;;-144.99;89.61;52625.44;5024461;28;19991;-70
2023/02/25 07:09:48;;;;;;;;;;;;;;;-144.99;88.97;52609.13;5015714;28;19953;-71
2023/02/25 07:12:14;;;;;;;;;;;;;;;-144.99;89.08;52609.13;5015845;28;19928;-72
2023/02/25 07:14:41;;;;;;;;;;;;;;;-144.99;88.71;52596.88;5015412;28;20414;-72
2023/02/25 07:17:08;;;;;;;;;;;;;;;-144.99;88.36;52611.16;5020074;28;19944;-72
2023/02/25 07:19:34;;;;;;;;;;;;;;;-144.99;87.87;52635.63;5020186;28;20004;-70
2023/02/25 07:22:04;;;;;;;;;;;;;;;-144.99;87.66;52592.81;5016947;28;20408;-75
2023/02/25 07:24:30;;;;;;;;;;;;;;;-144.99;86.84;52615.25;5013691;28;20058;-74
2023/02/25 07:26:57;;;;;;;;;;;;;;;-144.99;86.64;52621.34;5013545;28;19997;-72
2023/02/25 07:29:23;;;;;;;;;;;;;;;-144.99;86.54;52613.19;5008570;28;20292;-69
2023/02/25 07:31:50;;;;;;;;;;;;;;;-144.99;86.32;52598.94;5014856;28;20013;-73
2023/02/25 07:34:16;;;;;;;;;;;;;;;-144.99;86.14;52639.69;5009886;28;20021;-70
2023/02/25 07:36:43;;;;;;;;;;;;;;;-144.99;85.71;52590.78;5019836;28;19989;-69
2023/02/25 07:39:12;;;;;;;;;;;;;;;-144.99;85.59;52621.34;5011264;28;19940;-69
2023/02/25 07:41:38;;;;;;;;;;;;;;;-144.99;85.01;52656.00;5007344;28;19992;-67
2023/02/25 07:44:06;;;;;;;;;;;;;;;-144.99;84.01;52637.66;5012213;28;20295;-67
2023/02/25 07:46:32;;;;;;;;;;;;;;;-144.99;83.78;52598.94;5006022;28;19952;-69
2023/02/25 07:48:59;;;;;;;;;;;;;;;-144.99;83.59;52586.69;5010005;28;20000;-68
2023/02/25 07:51:26;;;;;;;;;;;;;;;-144.99;83.50;52603.00;5004451;28;19937;-68
2023/02/25 07:53:54;;;;;;;;;;;;;;;-144.99;83.32;52598.94;5015859;28;19952;-75
2023/02/25 07:56:22;;;;;;;;;;;;;;;-144.99;82.87;52582.63;5015648;28;20416;-75
2023/02/25 07:58:49;;;;;;;;;;;;;;;-144.99;82.13;52611.16;5016425;28;20455;-68
2023/02/25 08:01:18;;;;;;;;;;;;;;;-144.99;82.99;52590.78;5005040;28;19961;-71
2023/02/25 08:03:47;;;;;;;;;;;;;;;-144.99;83.31;52621.34;5003328;28;20368;-71
2023/02/25 08:06:14;;;;;;;;;;;;;;;-144.99;82.33;52625.44;5006160;28;19965;-71
2023/02/25 08:08:40;;;;;;;;;;;;;;;-144.99;81.97;52611.16;5012506;28;20335;-71
2023/02/25 08:11:08;;;;;;;;;;;;;;;-144.99;82.70;52598.94;5007602;28;19962;-71
2023/02/25 08:13:36;;;;;;;;;;;;;;;-144.99;82.97;52582.63;5012893;28;19945;-71
2023/02/25 08:16:04;;;;;;;;;;;;;;;-144.99;82.42;52611.16;5013620;28;19980;-70
2023/02/25 08:18:30;;;;;;;;;;;;;;;-144.99;83.71;52619.31;5017059;28;19994;-71
2023/02/25 08:20:57;;;;;;;;;;;;;;;-144.99;81.84;52613.19;5014556;28;20624;-71
2023/02/25 08:23:23;;;;;;;;;;;;;;;-144.99;82.23;52598.94;5016159;28;19964;-71
2023/02/25 08:25:53;;;;;;;;;;;;;;;-144.99;81.93;52598.94;5011796;28;19941;-70
2023/02/25 08:28:19;;;;;;;;;;;;;;;-144.99;80.82;52603.00;5020010;28;19940;-70
2023/02/25 08:30:47;;;;;;;;;;;;;;;-144.99;79.78;52603.00;5013141;28;19959;-70
2023/02/25 08:33:14;;;;;;;;;;;;;;;-144.99;79.62;52586.69;5018641;28;19940;-70
2023/02/25 08:35:40;;;;;;;;;;;;;;;-144.99;79.49;52603.00;5015017;28;19992;-70
2023/02/25 08:38:07;;;;;;;;;;;;;;;-144.99;80.71;52609.13;5018939;28;19941;-69
2023/02/25 08:40:33;;;;;;;;;;;;;;;-144.99;80.09;52607.09;5012108;28;19964;-77
2023/02/25 08:43:00;;;;;;;;;;;;;;;-144.99;79.76;52643.78;5009548;28;19943;-76
2023/02/25 08:45:27;;;;;;;;;;;;;;;-144.99;79.34;52615.25;5004945;28;20116;-76
2023/02/25 08:47:55;;;;;;;;;;;;;;;-144.99;79.63;52590.78;4998003;28;19971;-76
2023/02/25 08:50:23;;;;;;;;;;;;;;;-144.99;79.81;52629.50;5004207;28;20024;-75
2023/02/25 08:52:50;;;;;;;;;;;;;;;-144.99;79.54;52574.47;5007275;28;20046;-76
2023/02/25 08:55:17;;;;;;;;;;;;;;;-144.99;79.48;52596.88;5002139;28;20486;-76
2023/02/25 08:57:44;;;;;;;;;;;;;;;-144.99;79.29;52590.78;5003303;28;19942;-77
2023/02/25 09:00:13;;;;;;;;;;;;;;;-144.99;78.68;52603.00;5005855;28;19941;-78
2023/02/25 09:02:40;;;;;;;;;;;;;;;-144.99;78.73;52633.59;5004071;28;20404;-79
2023/02/25 09:05:08;;;;;;;;;;;;;;;-144.99;78.59;52594.84;5010065;28;20017;-78
2023/02/25 09:07:35;;;;;;;;;;;;;;;-144.99;78.09;52600.97;5007695;28;19957;-80
2023/02/25 09:10:03;;;;;;;;;;;;;;;-144.99;78.29;52623.38;5010385;28;20375;-78
2023/02/25 09:12:30;;;;;;;;;;;;;;;-144.99;78.06;52609.13;5014648;28;20136;-78
2023/02/25 09:14:57;;;;;;;;;;;;;;;-144.99;77.47;52590.78;5008109;28;20413;-78
2023/02/25 09:17:23;;;;;;;;;;;;;;;-144.99;76.95;52631.53;5011923;28;19943;-77
2023/02/25 09:19:50;;;;;;;;;;;;;;;-144.99;77.33;52603.00;5010857;28;19942;-77
2023/02/25 09:22:18;;;;;;;;;;;;;;;-144.99;77.20;52594.84;5011258;28;20132;-79
2023/02/25 09:24:45;;;;;;;;;;;;;;;-144.99;77.01;52615.25;5013570;28;20030;-78
2023/02/25 09:27:12;;;;;;;;;;;;;;;-144.99;76.38;52615.25;5013162;28;20020;-79
2023/02/25 09:29:40;;;;;;;;;;;;;;;-144.99;76.13;52576.50;5017820;28;19943;-81
2023/02/25 09:32:07;;;;;;;;;;;;;;;-144.99;75.38;52586.69;5026184;28;19981;-80
2023/02/25 09:34:33;;;;;;;;;;;;;;;-144.99;74.00;52560.19;5020833;28;19952;-79
2023/02/25 09:37:00;;;;;;;;;;;;;;;-144.99;73.14;52533.69;5021967;28;20013;-78
2023/02/25 09:39:28;;;;;;;;;;;;;;;-144.99;72.84;52525.56;5012551;28;19939;-79
2023/02/25 09:41:59;;;;;;;;;;;;;;;-144.99;72.22;52550.00;5012797;28;19936;-79
2023/02/25 09:44:27;;;;;;;;;;;;;;;-144.99;71.45;52501.09;4996624;28;20038;-79
2023/02/25 09:46:57;;;;;;;;;;;;;;;-144.99;72.08;52537.78;5008915;28;19966;-79
2023/02/25 09:49:27;;;;;;;;;;;;;;;-144.99;72.00;52533.69;5004317;28;20043;-79
2023/02/25 09:51:56;;;;;;;;;;;;;;;-144.99;72.08;52584.66;5012811;28;20022;-79
2023/02/25 09:54:25;;;;;;;;;;;;;;;-144.99;71.32;52558.16;4999248;28;19955;-79
2023/02/25 09:56:55;;;;;;;;;;;;;;;-144.99;71.42;52547.97;5003718;28;19939;-76
2023/02/25 09:59:23;;;;;;;;;;;;;;;-144.99;71.28;52521.47;5012438;28;19947;-78
2023/02/25 10:01:55;;;;;;;;;;;;;;;-144.99;70.78;52564.28;5011367;28;20308;-79
2023/02/25 10:04:24;;;;;;;;;;;;;;;-144.99;69.93;52509.25;5012170;28;20111;-79
2023/02/25 10:06:54;;;;;;;;;;;;;;;-144.99;69.59;52564.28;5010593;28;19963;-78
2023/02/25 10:09:23;;;;;;;;;;;;;;;-144.99;70.61;52533.69;5003681;28;19950;-78
2023/02/25 10:11:52;;;;;;;;;;;;;;;-144.99;71.60;52554.09;5015366;28;19961;-79
2023/02/25 10:14:37;;;;;;;;;;;;;;;-144.99;71.85;52550.00;5000215;28;20390;-79
2023/02/25 10:17:10;;;;;;;;;;;;;;;-144.99;72.70;52550.00;5018779;28;19948;-79
2023/02/25 10:19:50;;;;;;;;;;;;;;;-144.99;73.54;52558.16;5010134;28;20016;-80
2023/02/25 10:22:24;;;;;;;;;;;;;;;-144.99;74.25;52586.69;5019173;28;19939;-79
2023/02/25 10:24:55;;;;;;;;;;;;;;;-144.99;74.34;52623.38;5031710;28;20295;-78
2023/02/25 10:27:26;;;;;;;;;;;;;;;-144.99;74.44;52582.63;4999815;28;19943;-79
2023/02/25 10:29:57;;;;;;;;;;;;;;;-144.99;74.62;52576.50;5011906;28;19941;-79
2023/02/25 10:32:25;;;;;;;;;;;;;;;-144.99;75.01;52594.84;5018644;28;19965;-79
2023/02/25 10:34:52;;;;;;;;;;;;;;;-144.99;75.85;52590.78;5008253;28;20395;-80
2023/02/25 10:37:21;;;;;;;;;;;;;;;-144.99;76.11;52592.81;5003984;28;20011;-79
2023/02/25 10:39:49;;;;;;;;;;;;;;;-144.99;76.21;52615.25;5008963;28;20001;-80
2023/02/25 10:42:16;;;;;;;;;;;;;;;-144.99;76.63;52611.16;5011336;28;19999;-81
2023/02/25 10:44:43;;;;;;;;;;;;;;;-144.99;76.06;52611.16;5016241;28;19951;-78
2023/02/25 10:47:13;;;;;;;;;;;;;;;-144.99;75.42;52505.16;5011446;28;19941;-79
2023/02/25 10:49:40;;;;;;;;;;;;;;;-144.99;73.50;52556.13;5005474;28;19938;-79
2023/02/25 10:52:13;;;;;;;;;;;;;;;-144.99;72.86;52472.56;4999831;28;20370;-79
2023/02/25 10:54:45;;;;;;;;;;;;;;;-144.99;72.49;52578.53;5017226;28;20444;-79
2023/02/25 10:57:14;;;;;;;;;;;;;;;-144.99;73.32;52558.16;5015461;28;19940;-78
2023/02/25 10:59:43;;;;;;;;;;;;;;;-144.99;73.95;52554.09;5007610;28;19939;-79
2023/02/25 11:02:21;;;;;;;;;;;;;;;-144.99;74.79;52558.16;5008917;28;19961;-79
2023/02/25 11:04:49;;;;;;;;;;;;;;;-144.99;74.80;52590.78;5010545;28;19932;-80
2023/02/25 11:07:31;;;;;;;;;;;;;;;-144.99;75.29;52570.38;5004948;28;20138;-79
2023/02/25 11:10:09;;;;;;;;;;;;;;;-144.99;75.72;52554.09;5009090;28;19938;-79
2023/02/25 11:12:39;;;;;;;;;;;;;;;-144.99;75.33;52566.31;5016672;28;19982;-80
2023/02/25 11:15:18;;;;;;;;;;;;;;;-144.99;75.49;52600.97;5011303;28;20417;-80
2023/02/25 11:17:46;;;;;;;;;;;;;;;-144.99;75.85;52590.78;5007802;28;19994;-78
2023/02/25 11:20:22;;;;;;;;;;;;;;;-144.99;75.74;52607.09;5008277;28;19944;-77
2023/02/25 11:22:51;;;;;;;;;;;;;;;-144.99;76.15;52570.38;5011161;28;20023;-80
2023/02/25 11:25:18;;;;;;;;;;;;;;;-144.99;75.72;52603.00;4998398;28;19976;-78
2023/02/25 11:27:48;;;;;;;;;;;;;;;-144.99;74.73;52431.78;5006184;28;19941;-77
2023/02/25 11:30:18;;;;;;;;;;;;;;;-144.99;72.76;52603.00;5008579;28;19968;-79
2023/02/25 11:32:52;;;;;;;;;;;;;;;-144.99;71.86;52586.69;5021218;28;20453;-78
2023/02/25 11:35:21;;;;;;;;;;;;;;;-144.99;71.90;52574.47;5010155;28;20007;-79
2023/02/25 11:37:48;;;;;;;;;;;;;;;-144.99;71.10;52395.09;5007932;28;19944;-78
2023/02/25 11:40:23;;;;;;;;;;;;;;;-144.99;69.36;52439.94;5017121;28;19942;-82
2023/02/25 11:43:00;;;;;;;;;;;;;;;-144.99;68.37;52488.84;5012845;28;19994;-78
2023/02/25 11:45:29;;;;;;;;;;;;;;;-144.99;68.86;52550.00;5004261;28;19960;-79
2023/02/25 11:47:57;;;;;;;;;;;;;;;-144.99;69.69;52533.69;5000684;28;19991;-78
2023/02/25 11:50:26;;;;;;;;;;;;;;;-144.99;70.07;52547.97;5001545;28;19963;-78
2023/02/25 11:52:57;;;;;;;;;;;;;;;-144.99;69.74;52541.84;5012517;28;19970;-79
2023/02/25 11:55:34;;;;;;;;;;;;;;;-144.99;69.24;52558.16;5010822;28;20050;-79
2023/02/25 11:58:05;;;;;;;;;;;;;;;-144.99;69.48;52488.84;5001243;28;19940;-80
2023/02/25 12:00:35;;;;;;;;;;;;;;;-144.99;68.52;52386.94;5009936;28;20450;-78
2023/02/25 12:03:25;;;;;;;;;;;;;;;-144.99;65.30;52368.59;5008339;28;20011;-79
2023/02/25 12:06:05;;;;;;;;;;;;;;;-144.99;63.12;52333.94;5001107;28;20062;-79
2023/02/25 12:08:44;;;;;;;;;;;;;;;-144.99;61.45;52464.41;5012396;28;19943;-79
2023/02/25 12:11:40;;;;;;;;;;;;;;;-144.99;61.01;52376.75;5012468;28;19925;-78
2023/02/25 12:14:30;;;;;;;;;;;;;;;-144.99;60.44;52309.50;5010490;28;20042;-79
2023/02/25 12:17:11;;;;;;;;;;;;;;;-144.99;61.04;52399.19;4994642;28;20000;-79
2023/02/25 12:20:05;;;;;;;;;;;;;;;-144.99;61.87;52488.84;5011500;28;19940;-80
2023/02/25 12:23:04;;;;;;;;;;;;;;;-144.99;62.70;52452.16;4969534;28;20380;-80
2023/02/25 12:25:38;;;;;;;;;;;;;;;-144.99;62.27;52325.81;4953569;28;20049;-79
2023/02/25 12:28:12;;;;;;;;;;;;;;;-144.99;60.57;52336.00;4969937;28;20039;-79
2023/02/25 12:30:59;;;;;;;;;;;;;;;-144.99;59.14;52289.13;4986573;28;20385;-79
2023/02/25 12:33:37;;;;;;;;;;;;;;;-144.99;57.57;52268.72;5019867;28;19940;-80